HTZA/ZNZ METAR and TAF weather

Enter ICAO airport designator
Station Type Date Time Source
HTZA METAR 2018/12/10 20:00 UTC NOAA

HTZA 102000Z 00000KT 9999 FEW016 27/25 Q1013 NOSIG


Station Type Date Time Source
HTZA Decoded METAR 2018/12/10 20:00 UTC NOAA

Zanzibar / Kisauni, Tanzania (HTZA) 06-13S 039-13E 15M
Dec 10, 2018 - 03:00 PM EST / 2018.12.10 2000 UTC
Wind: Calm:0
Visibility: greater than 7 mile(s):0
Sky conditions: mostly clear
Temperature: 80 F (27 C)
Dew Point: 77 F (25 C)
Relative Humidity: 88%
Pressure (altimeter): 29.91 in. Hg (1013 hPa)
ob: HTZA 102000Z 00000KT 9999 FEW016 27/25 Q1013 NOSIG
cycle: 20

Station Type Date Time Source
HTZA TAF 2018/12/10 18:54 UTC NOAA

TAF HTZA 1018/1118 06010KT 9999 SCT016 FEW018CB SCT080 PROB30
TEMPO 1100/1109 00000KT TSRA BKN016 FEW018CB BKN070
BECMG 1112/1114 06010KT SCT020 FEW022CB SCT080


Example: see airport list